Childress Municipal Airport Childress US
ICAO: KCDS
IATA: CDS
Category: Medium
Scheduled Services: No

Elevation: 1954 ft
TransAlt. 18000 ft.

Airport Communications:
ASOS:135.125
FORT WORTH CNTR:133.5
FORT WORTH RDO:122.45
CTAF/UNICOM:122.8

KCDS Zoom In..

If you have problems with the map follow the link
https://www.worldairports.se/pages/airport.php?
ICAO=KCDS

Runways:

(A) RW 04 length 4425 ft width 60 ft
---- / hdg 41

(B) RW 18 length 5949 ft width 75 ft
---- / hdg 176

(C) RW 22 length 4425 ft width 60 ft
---- / hdg 221

(D) RW 36 length 5949 ft width 75 ft
---- / hdg 356

Location; KCDS
Day. 19 / Time. 15.53 Zulu
* Altimeter: 30.57
* Temperature: 02° c. 35.6°f.
* Wind from: 230° Speed 05 kn.
Dewpoint: -04° c.
Visibility: 10 Statute Miles.
Clouds: Clear (automated report).

KCDS 191553Z AUTO 23005KT 10SM CLR 02/M04 A3057 RMK AO2 SLP362 T00221044


Wind From 230°
Speed 05 kn.

 
 
jpsmedia worldairports.se 2020   terms of use